sensor_id;sensor_type;location;lat;lon;timestamp;temperature;humidity
30001;DHT22;16845;48.670;9.000;2023-04-03T00:01:11;4.00;99.90
30001;DHT22;16845;48.670;9.000;2023-04-03T00:03:39;4.00;99.90
30001;DHT22;16845;48.670;9.000;2023-04-03T00:06:08;4.00;99.90
30001;DHT22;16845;48.670;9.000;2023-04-03T00:08:38;4.00;99.90
30001;DHT22;16845;48.670;9.000;2023-04-03T00:11:07;4.00;99.90
30001;DHT22;16845;48.670;9.000;2023-04-03T00:13:36;3.90;99.90
30001;DHT22;16845;48.670;9.000;2023-04-03T00:16:05;3.90;99.90
30001;DHT22;16845;48.670;9.000;2023-04-03T00:18:34;3.80;99.90
30001;DHT22;16845;48.670;9.000;2023-04-03T00:21:03;3.80;99.90
30001;DHT22;16845;48.670;9.000;2023-04-03T00:23:31;3.90;99.90
30001;DHT22;16845;48.670;9.000;2023-04-03T00:25:59;3.90;99.90
30001;DHT22;16845;48.670;9.000;2023-04-03T00:28:27;4.00;99.90
30001;DHT22;16845;48.670;9.000;2023-04-03T00:30:55;3.90;99.90
30001;DHT22;16845;48.670;9.000;2023-04-03T00:33:22;3.90;99.90
30001;DHT22;16845;48.670;9.000;2023-04-03T00:35:52;3.90;99.90
30001;DHT22;16845;48.670;9.000;2023-04-03T00:38:20;3.90;99.90
30001;DHT22;16845;48.670;9.000;2023-04-03T00:40:49;4.00;99.90
30001;DHT22;16845;48.670;9.000;2023-04-03T00:43:19;3.90;99.90
30001;DHT22;16845;48.670;9.000;2023-04-03T00:45:48;3.90;99.90
30001;DHT22;16845;48.670;9.000;2023-04-03T00:48:20;3.90;99.90
30001;DHT22;16845;48.670;9.000;2023-04-03T00:50:48;3.90;99.90
30001;DHT22;16845;48.670;9.000;2023-04-03T00:53:22;3.80;99.90
30001;DHT22;16845;48.670;9.000;2023-04-03T00:55:52;3.80;99.90
30001;DHT22;16845;48.670;9.000;2023-04-03T00:58:25;3.80;99.90
30001;DHT22;16845;48.670;9.000;2023-04-03T01:00:57;3.80;99.90
30001;DHT22;16845;48.670;9.000;2023-04-03T01:03:26;3.80;99.90
30001;DHT22;16845;48.670;9.000;2023-04-03T01:05:54;3.90;99.90
30001;DHT22;16845;48.670;9.000;2023-04-03T01:08:23;3.80;99.90
30001;DHT22;16845;48.670;9.000;2023-04-03T01:10:51;3.70;99.90
30001;DHT22;16845;48.670;9.000;2023-04-03T01:13:23;3.70;99.90
30001;DHT22;16845;48.670;9.000;2023-04-03T01:15:51;3.70;99.90
30001;DHT22;16845;48.670;9.000;2023-04-03T01:18:21;3.50;99.90
30001;DHT22;16845;48.670;9.000;2023-04-03T01:23:57;3.60;99.90
30001;DHT22;16845;48.670;9.000;2023-04-03T01:26:28;3.50;99.90
30001;DHT22;16845;48.670;9.000;2023-04-03T01:28:56;3.50;99.90
30001;DHT22;16845;48.670;9.000;2023-04-03T01:31:28;3.60;99.90
30001;DHT22;16845;48.670;9.000;2023-04-03T01:33:59;3.60;99.90
30001;DHT22;16845;48.670;9.000;2023-04-03T01:36:29;3.60;99.90
30001;DHT22;16845;48.670;9.000;2023-04-03T01:38:58;3.60;99.90
30001;DHT22;16845;48.670;9.000;2023-04-03T01:41:27;3.50;99.90
30001;DHT22;16845;48.670;9.000;2023-04-03T01:43:55;3.50;99.90
30001;DHT22;16845;48.670;9.000;2023-04-03T01:46:23;3.50;99.90
30001;DHT22;16845;48.670;9.000;2023-04-03T01:48:51;3.50;99.90
30001;DHT22;16845;48.670;9.000;2023-04-03T01:51:20;3.50;99.90
30001;DHT22;16845;48.670;9.000;2023-04-03T01:53:48;3.50;99.90
30001;DHT22;16845;48.670;9.000;2023-04-03T01:56:16;3.50;99.90
30001;DHT22;16845;48.670;9.000;2023-04-03T01:58:44;3.50;99.90
30001;DHT22;16845;48.670;9.000;2023-04-03T02:01:12;3.50;99.90
30001;DHT22;16845;48.670;9.000;2023-04-03T02:03:39;3.40;99.90
30001;DHT22;16845;48.670;9.000;2023-04-03T02:06:07;3.30;99.90
30001;DHT22;16845;48.670;9.000;2023-04-03T02:08:39;3.30;99.90
30001;DHT22;16845;48.670;9.000;2023-04-03T02:11:08;3.20;99.90
30001;DHT22;16845;48.670;9.000;2023-04-03T02:13:36;3.20;99.90
30001;DHT22;16845;48.670;9.000;2023-04-03T02:16:08;3.20;99.90
30001;DHT22;16845;48.670;9.000;2023-04-03T02:18:36;3.30;99.90
30001;DHT22;16845;48.670;9.000;2023-04-03T02:21:04;3.20;99.90
30001;DHT22;16845;48.670;9.000;2023-04-03T02:23:33;3.30;99.90
30001;DHT22;16845;48.670;9.000;2023-04-03T02:26:09;3.20;99.90
30001;DHT22;16845;48.670;9.000;2023-04-03T02:28:38;3.30;99.90
30001;DHT22;16845;48.670;9.000;2023-04-03T02:31:06;3.20;99.90
30001;DHT22;16845;48.670;9.000;2023-04-03T02:33:35;3.20;99.90
30001;DHT22;16845;48.670;9.000;2023-04-03T02:36:05;3.20;99.90
30001;DHT22;16845;48.670;9.000;2023-04-03T02:38:34;3.20;99.90
30001;DHT22;16845;48.670;9.000;2023-04-03T02:41:03;3.30;99.90
30001;DHT22;16845;48.670;9.000;2023-04-03T02:43:33;3.30;99.90
30001;DHT22;16845;48.670;9.000;2023-04-03T02:46:01;3.30;99.90
30001;DHT22;16845;48.670;9.000;2023-04-03T02:48:29;3.40;99.90
30001;DHT22;16845;48.670;9.000;2023-04-03T02:50:57;3.30;99.90
30001;DHT22;16845;48.670;9.000;2023-04-03T02:53:25;3.20;99.90
30001;DHT22;16845;48.670;9.000;2023-04-03T02:55:53;3.30;99.90
30001;DHT22;16845;48.670;9.000;2023-04-03T02:58:21;3.30;99.90
30001;DHT22;16845;48.670;9.000;2023-04-03T03:00:50;3.30;99.90
30001;DHT22;16845;48.670;9.000;2023-04-03T03:03:18;3.30;99.90
30001;DHT22;16845;48.670;9.000;2023-04-03T03:05:46;3.20;99.90
30001;DHT22;16845;48.670;9.000;2023-04-03T03:08:15;3.20;99.90
30001;DHT22;16845;48.670;9.000;2023-04-03T03:10:44;3.20;99.90
30001;DHT22;16845;48.670;9.000;2023-04-03T03:13:12;3.30;99.90
30001;DHT22;16845;48.670;9.000;2023-04-03T03:15:40;3.40;99.90
30001;DHT22;16845;48.670;9.000;2023-04-03T03:18:09;3.30;99.90
30001;DHT22;16845;48.670;9.000;2023-04-03T03:20:37;3.30;99.90
30001;DHT22;16845;48.670;9.000;2023-04-03T03:23:05;3.30;99.90
30001;DHT22;16845;48.670;9.000;2023-04-03T03:25:33;3.30;99.90
30001;DHT22;16845;48.670;9.000;2023-04-03T03:28:01;3.40;99.90
30001;DHT22;16845;48.670;9.000;2023-04-03T03:30:29;3.30;99.90
30001;DHT22;16845;48.670;9.000;2023-04-03T03:32:57;3.30;99.90
30001;DHT22;16845;48.670;9.000;2023-04-03T03:35:26;3.30;99.90
30001;DHT22;16845;48.670;9.000;2023-04-03T03:37:54;3.30;99.90
30001;DHT22;16845;48.670;9.000;2023-04-03T03:40:22;3.40;99.90
30001;DHT22;16845;48.670;9.000;2023-04-03T03:42:50;3.30;99.90
30001;DHT22;16845;48.670;9.000;2023-04-03T03:45:18;3.20;99.90
30001;DHT22;16845;48.670;9.000;2023-04-03T03:47:45;3.20;99.90
30001;DHT22;16845;48.670;9.000;2023-04-03T03:50:14;3.30;99.90
30001;DHT22;16845;48.670;9.000;2023-04-03T03:52:43;3.30;99.90
30001;DHT22;16845;48.670;9.000;2023-04-03T03:55:11;3.30;99.90
30001;DHT22;16845;48.670;9.000;2023-04-03T03:57:39;3.40;99.90
30001;DHT22;16845;48.670;9.000;2023-04-03T04:00:08;3.30;99.90
30001;DHT22;16845;48.670;9.000;2023-04-03T04:02:36;3.30;99.90
30001;DHT22;16845;48.670;9.000;2023-04-03T04:05:04;3.30;99.90
30001;DHT22;16845;48.670;9.000;2023-04-03T04:07:32;3.40;99.90
30001;DHT22;16845;48.670;9.000;2023-04-03T04:10:02;3.40;99.90
30001;DHT22;16845;48.670;9.000;2023-04-03T04:12:30;3.30;99.90
30001;DHT22;16845;48.670;9.000;2023-04-03T04:14:58;3.30;99.90
30001;DHT22;16845;48.670;9.000;2023-04-03T04:17:26;3.30;99.90
30001;DHT22;16845;48.670;9.000;2023-04-03T04:19:54;3.30;99.90
30001;DHT22;16845;48.670;9.000;2023-04-03T04:22:22;3.30;99.90
30001;DHT22;16845;48.670;9.000;2023-04-03T04:24:50;3.40;99.90
30001;DHT22;16845;48.670;9.000;2023-04-03T04:27:19;3.30;99.90
30001;DHT22;16845;48.670;9.000;2023-04-03T04:29:47;3.40;99.90
30001;DHT22;16845;48.670;9.000;2023-04-03T04:32:14;3.40;99.90
30001;DHT22;16845;48.670;9.000;2023-04-03T04:34:42;3.30;99.90
30001;DHT22;16845;48.670;9.000;2023-04-03T04:37:10;3.20;99.90
30001;DHT22;16845;48.670;9.000;2023-04-03T04:39:38;3.20;99.90
30001;DHT22;16845;48.670;9.000;2023-04-03T04:42:06;3.20;99.90
30001;DHT22;16845;48.670;9.000;2023-04-03T04:44:43;3.20;99.90
30001;DHT22;16845;48.670;9.000;2023-04-03T04:47:11;3.30;99.90
30001;DHT22;16845;48.670;9.000;2023-04-03T04:49:39;3.30;99.90
30001;DHT22;16845;48.670;9.000;2023-04-03T04:52:07;3.20;99.90
30001;DHT22;16845;48.670;9.000;2023-04-03T04:54:35;3.20;99.90
30001;DHT22;16845;48.670;9.000;2023-04-03T04:57:03;3.30;99.90
30001;DHT22;16845;48.670;9.000;2023-04-03T04:59:32;3.20;99.90
30001;DHT22;16845;48.670;9.000;2023-04-03T05:02:01;3.30;99.90
30001;DHT22;16845;48.670;9.000;2023-04-03T05:04:30;3.40;99.90
30001;DHT22;16845;48.670;9.000;2023-04-03T05:06:58;3.30;99.90
30001;DHT22;16845;48.670;9.000;2023-04-03T05:09:26;3.40;99.90
30001;DHT22;16845;48.670;9.000;2023-04-03T05:11:54;3.40;99.90
30001;DHT22;16845;48.670;9.000;2023-04-03T05:14:23;3.40;99.90
30001;DHT22;16845;48.670;9.000;2023-04-03T05:16:51;3.40;99.90
30001;DHT22;16845;48.670;9.000;2023-04-03T05:19:21;3.30;99.90
30001;DHT22;16845;48.670;9.000;2023-04-03T05:21:49;3.30;99.90
30001;DHT22;16845;48.670;9.000;2023-04-03T05:24:17;3.40;99.90
30001;DHT22;16845;48.670;9.000;2023-04-03T05:26:45;3.40;99.90
30001;DHT22;16845;48.670;9.000;2023-04-03T05:29:13;3.40;99.90
30001;DHT22;16845;48.670;9.000;2023-04-03T05:31:41;3.40;99.90
30001;DHT22;16845;48.670;9.000;2023-04-03T05:34:08;3.40;99.90
30001;DHT22;16845;48.670;9.000;2023-04-03T05:36:38;3.50;99.90
30001;DHT22;16845;48.670;9.000;2023-04-03T05:39:06;3.40;99.90
30001;DHT22;16845;48.670;9.000;2023-04-03T05:41:34;3.40;99.90
30001;DHT22;16845;48.670;9.000;2023-04-03T05:44:02;3.50;99.90
30001;DHT22;16845;48.670;9.000;2023-04-03T05:46:30;3.50;99.90
30001;DHT22;16845;48.670;9.000;2023-04-03T05:48:58;3.50;99.90
30001;DHT22;16845;48.670;9.000;2023-04-03T05:51:33;3.50;99.90
30001;DHT22;16845;48.670;9.000;2023-04-03T05:54:08;3.50;99.90
30001;DHT22;16845;48.670;9.000;2023-04-03T05:56:37;3.60;99.90
30001;DHT22;16845;48.670;9.000;2023-04-03T05:59:05;3.70;99.90
30001;DHT22;16845;48.670;9.000;2023-04-03T06:01:34;3.80;99.90
30001;DHT22;16845;48.670;9.000;2023-04-03T06:04:01;3.90;99.90
30001;DHT22;16845;48.670;9.000;2023-04-03T06:06:46;3.90;99.90
30001;DHT22;16845;48.670;9.000;2023-04-03T06:09:16;3.80;99.90
30001;DHT22;16845;48.670;9.000;2023-04-03T06:11:44;3.80;99.90
30001;DHT22;16845;48.670;9.000;2023-04-03T06:14:12;3.80;99.90
30001;DHT22;16845;48.670;9.000;2023-04-03T06:16:40;3.80;99.90
30001;DHT22;16845;48.670;9.000;2023-04-03T06:19:08;3.90;99.90
30001;DHT22;16845;48.670;9.000;2023-04-03T06:21:37;4.10;99.90
30001;DHT22;16845;48.670;9.000;2023-04-03T06:24:05;4.00;99.90
30001;DHT22;16845;48.670;9.000;2023-04-03T06:26:35;4.00;99.90
30001;DHT22;16845;48.670;9.000;2023-04-03T06:29:03;4.10;99.90
30001;DHT22;16845;48.670;9.000;2023-04-03T06:31:31;4.10;99.90
30001;DHT22;16845;48.670;9.000;2023-04-03T06:33:59;3.90;99.90
30001;DHT22;16845;48.670;9.000;2023-04-03T06:36:28;3.90;99.90
30001;DHT22;16845;48.670;9.000;2023-04-03T06:38:56;3.90;99.90
30001;DHT22;16845;48.670;9.000;2023-04-03T06:41:24;3.90;99.90
30001;DHT22;16845;48.670;9.000;2023-04-03T06:43:54;4.00;99.90
30001;DHT22;16845;48.670;9.000;2023-04-03T06:46:25;4.00;99.90
30001;DHT22;16845;48.670;9.000;2023-04-03T06:48:54;4.10;99.90
30001;DHT22;16845;48.670;9.000;2023-04-03T06:51:23;4.30;99.90
30001;DHT22;16845;48.670;9.000;2023-04-03T06:53:52;4.30;99.90
30001;DHT22;16845;48.670;9.000;2023-04-03T06:56:21;4.40;99.90
30001;DHT22;16845;48.670;9.000;2023-04-03T06:58:49;4.50;99.90
30001;DHT22;16845;48.670;9.000;2023-04-03T07:01:19;4.40;99.90
30001;DHT22;16845;48.670;9.000;2023-04-03T07:03:48;4.50;99.90
30001;DHT22;16845;48.670;9.000;2023-04-03T07:06:17;4.60;99.90
30001;DHT22;16845;48.670;9.000;2023-04-03T07:08:45;4.70;99.90
30001;DHT22;16845;48.670;9.000;2023-04-03T07:11:15;4.80;99.90
30001;DHT22;16845;48.670;9.000;2023-04-03T07:13:43;4.70;99.90
30001;DHT22;16845;48.670;9.000;2023-04-03T07:16:11;4.60;99.90
30001;DHT22;16845;48.670;9.000;2023-04-03T07:18:41;4.60;99.90
30001;DHT22;16845;48.670;9.000;2023-04-03T07:21:09;4.60;99.90
30001;DHT22;16845;48.670;9.000;2023-04-03T07:23:37;4.60;99.90
30001;DHT22;16845;48.670;9.000;2023-04-03T07:26:05;4.60;99.90
30001;DHT22;16845;48.670;9.000;2023-04-03T07:28:34;4.70;99.90
30001;DHT22;16845;48.670;9.000;2023-04-03T07:31:04;4.70;99.90
30001;DHT22;16845;48.670;9.000;2023-04-03T07:33:35;4.80;99.90
30001;DHT22;16845;48.670;9.000;2023-04-03T07:36:05;4.80;99.90
30001;DHT22;16845;48.670;9.000;2023-04-03T07:38:35;4.90;99.90
30001;DHT22;16845;48.670;9.000;2023-04-03T07:41:04;5.20;99.90
30001;DHT22;16845;48.670;9.000;2023-04-03T07:43:32;5.20;99.90
30001;DHT22;16845;48.670;9.000;2023-04-03T07:46:00;5.30;99.90
30001;DHT22;16845;48.670;9.000;2023-04-03T07:48:29;5.40;99.90
30001;DHT22;16845;48.670;9.000;2023-04-03T07:50:59;5.40;99.90
30001;DHT22;16845;48.670;9.000;2023-04-03T07:53:29;5.50;99.90
30001;DHT22;16845;48.670;9.000;2023-04-03T07:55:57;5.60;99.90
30001;DHT22;16845;48.670;9.000;2023-04-03T07:58:25;5.50;99.90
30001;DHT22;16845;48.670;9.000;2023-04-03T08:00:53;5.50;99.90
30001;DHT22;16845;48.670;9.000;2023-04-03T08:03:21;5.60;99.90
30001;DHT22;16845;48.670;9.000;2023-04-03T08:05:50;5.70;99.90
30001;DHT22;16845;48.670;9.000;2023-04-03T08:08:22;5.80;99.90
30001;DHT22;16845;48.670;9.000;2023-04-03T08:10:52;6.30;99.90
30001;DHT22;16845;48.670;9.000;2023-04-03T08:13:21;6.50;99.90
30001;DHT22;16845;48.670;9.000;2023-04-03T08:15:49;6.40;99.90
30001;DHT22;16845;48.670;9.000;2023-04-03T08:18:18;6.40;99.90
30001;DHT22;16845;48.670;9.000;2023-04-03T08:20:48;6.60;99.90
30001;DHT22;16845;48.670;9.000;2023-04-03T08:23:16;6.50;99.90
30001;DHT22;16845;48.670;9.000;2023-04-03T08:25:45;6.40;99.90
30001;DHT22;16845;48.670;9.000;2023-04-03T08:28:15;6.20;99.90
30001;DHT22;16845;48.670;9.000;2023-04-03T08:30:43;6.30;99.90
30001;DHT22;16845;48.670;9.000;2023-04-03T08:33:11;6.10;99.90
30001;DHT22;16845;48.670;9.000;2023-04-03T08:35:40;6.20;99.90
30001;DHT22;16845;48.670;9.000;2023-04-03T08:38:08;6.50;99.90
30001;DHT22;16845;48.670;9.000;2023-04-03T08:40:37;6.70;99.90
30001;DHT22;16845;48.670;9.000;2023-04-03T08:43:25;7.30;99.90
30001;DHT22;16845;48.670;9.000;2023-04-03T08:46:00;7.20;99.90
30001;DHT22;16845;48.670;9.000;2023-04-03T08:48:32;7.30;99.90
30001;DHT22;16845;48.670;9.000;2023-04-03T08:51:04;7.50;99.90
30001;DHT22;16845;48.670;9.000;2023-04-03T08:53:40;7.70;99.90
30001;DHT22;16845;48.670;9.000;2023-04-03T08:56:10;7.40;99.90
30001;DHT22;16845;48.670;9.000;2023-04-03T08:58:46;7.50;99.90
30001;DHT22;16845;48.670;9.000;2023-04-03T09:01:20;7.40;99.90
30001;DHT22;16845;48.670;9.000;2023-04-03T09:03:48;7.20;99.90
30001;DHT22;16845;48.670;9.000;2023-04-03T09:06:20;7.20;99.90
30001;DHT22;16845;48.670;9.000;2023-04-03T09:08:51;7.40;99.90
30001;DHT22;16845;48.670;9.000;2023-04-03T09:11:24;7.40;99.90
30001;DHT22;16845;48.670;9.000;2023-04-03T09:13:59;7.40;99.90
30001;DHT22;16845;48.670;9.000;2023-04-03T09:16:39;7.40;99.90
30001;DHT22;16845;48.670;9.000;2023-04-03T09:19:17;7.70;99.90
30001;DHT22;16845;48.670;9.000;2023-04-03T09:21:47;7.70;99.90
30001;DHT22;16845;48.670;9.000;2023-04-03T09:24:16;7.70;99.90
30001;DHT22;16845;48.670;9.000;2023-04-03T09:26:47;7.40;99.90
30001;DHT22;16845;48.670;9.000;2023-04-03T09:29:20;7.30;99.90
30001;DHT22;16845;48.670;9.000;2023-04-03T09:31:50;6.90;99.90
30001;DHT22;16845;48.670;9.000;2023-04-03T09:34:23;6.70;99.90
30001;DHT22;16845;48.670;9.000;2023-04-03T09:36:54;6.60;99.90
30001;DHT22;16845;48.670;9.000;2023-04-03T09:39:24;6.20;99.90
30001;DHT22;16845;48.670;9.000;2023-04-03T09:41:59;6.10;99.90
30001;DHT22;16845;48.670;9.000;2023-04-03T09:44:31;6.20;99.90
30001;DHT22;16845;48.670;9.000;2023-04-03T09:46:59;6.30;99.90
30001;DHT22;16845;48.670;9.000;2023-04-03T09:49:44;6.20;99.90
30001;DHT22;16845;48.670;9.000;2023-04-03T09:52:19;6.20;99.90
30001;DHT22;16845;48.670;9.000;2023-04-03T09:54:47;6.00;99.90
30001;DHT22;16845;48.670;9.000;2023-04-03T09:57:15;5.90;99.90
30001;DHT22;16845;48.670;9.000;2023-04-03T09:59:47;5.70;99.90
30001;DHT22;16845;48.670;9.000;2023-04-03T10:02:36;5.70;99.90
30001;DHT22;16845;48.670;9.000;2023-04-03T10:05:04;5.60;99.90
30001;DHT22;16845;48.670;9.000;2023-04-03T10:07:51;5.80;99.90
30001;DHT22;16845;48.670;9.000;2023-04-03T10:10:29;6.00;99.90
30001;DHT22;16845;48.670;9.000;2023-04-03T10:13:04;6.00;99.90
30001;DHT22;16845;48.670;9.000;2023-04-03T10:15:40;5.90;99.90
30001;DHT22;16845;48.670;9.000;2023-04-03T10:18:22;6.10;99.90
30001;DHT22;16845;48.670;9.000;2023-04-03T10:20:55;6.10;99.90
30001;DHT22;16845;48.670;9.000;2023-04-03T10:23:31;6.20;99.90
30001;DHT22;16845;48.670;9.000;2023-04-03T10:26:09;6.30;99.90
30001;DHT22;16845;48.670;9.000;2023-04-03T10:28:49;6.80;99.90
30001;DHT22;16845;48.670;9.000;2023-04-03T10:31:25;7.10;99.90
30001;DHT22;16845;48.670;9.000;2023-04-03T10:34:02;7.60;99.90
30001;DHT22;16845;48.670;9.000;2023-04-03T10:36:37;7.90;99.90
30001;DHT22;16845;48.670;9.000;2023-04-03T10:39:15;8.70;99.90
30001;DHT22;16845;48.670;9.000;2023-04-03T10:42:00;8.60;99.90
30001;DHT22;16845;48.670;9.000;2023-04-03T10:44:52;8.10;99.90
30001;DHT22;16845;48.670;9.000;2023-04-03T10:47:31;7.90;99.90
30001;DHT22;16845;48.670;9.000;2023-04-03T10:50:20;8.00;99.90
30001;DHT22;16845;48.670;9.000;2023-04-03T10:52:56;7.80;99.90
30001;DHT22;16845;48.670;9.000;2023-04-03T10:55:32;7.70;99.90
30001;DHT22;16845;48.670;9.000;2023-04-03T10:58:02;7.70;99.90
30001;DHT22;16845;48.670;9.000;2023-04-03T11:00:35;8.00;99.90
30001;DHT22;16845;48.670;9.000;2023-04-03T11:03:11;8.30;99.90
30001;DHT22;16845;48.670;9.000;2023-04-03T11:05:42;8.20;99.90
30001;DHT22;16845;48.670;9.000;2023-04-03T11:08:18;7.60;99.90
30001;DHT22;16845;48.670;9.000;2023-04-03T11:10:50;7.50;99.90
30001;DHT22;16845;48.670;9.000;2023-04-03T11:13:22;7.20;99.90
30001;DHT22;16845;48.670;9.000;2023-04-03T11:15:53;7.00;99.90
30001;DHT22;16845;48.670;9.000;2023-04-03T11:18:27;7.10;99.90
30001;DHT22;16845;48.670;9.000;2023-04-03T11:21:00;7.30;99.90
30001;DHT22;16845;48.670;9.000;2023-04-03T11:23:32;7.50;99.90
30001;DHT22;16845;48.670;9.000;2023-04-03T11:26:17;7.70;99.90
30001;DHT22;16845;48.670;9.000;2023-04-03T11:28:45;7.70;99.90
30001;DHT22;16845;48.670;9.000;2023-04-03T11:31:29;7.30;99.90
30001;DHT22;16845;48.670;9.000;2023-04-03T11:34:08;7.00;99.90
30001;DHT22;16845;48.670;9.000;2023-04-03T11:36:42;7.20;99.90
30001;DHT22;16845;48.670;9.000;2023-04-03T11:39:19;7.10;99.90
30001;DHT22;16845;48.670;9.000;2023-04-03T11:41:48;6.90;99.90
30001;DHT22;16845;48.670;9.000;2023-04-03T11:44:32;6.70;99.90
30001;DHT22;16845;48.670;9.000;2023-04-03T11:47:01;6.30;99.90
30001;DHT22;16845;48.670;9.000;2023-04-03T11:49:53;6.30;99.90
30001;DHT22;16845;48.670;9.000;2023-04-03T11:52:56;6.10;99.90
30001;DHT22;16845;48.670;9.000;2023-04-03T11:55:44;6.20;99.90
30001;DHT22;16845;48.670;9.000;2023-04-03T11:58:14;6.40;99.90
30001;DHT22;16845;48.670;9.000;2023-04-03T12:01:04;6.50;99.90
30001;DHT22;16845;48.670;9.000;2023-04-03T12:03:57;6.50;99.90
30001;DHT22;16845;48.670;9.000;2023-04-03T12:07:01;6.30;99.90
30001;DHT22;16845;48.670;9.000;2023-04-03T12:12:31;6.50;99.90
30001;DHT22;16845;48.670;9.000;2023-04-03T12:15:22;6.50;99.90
30001;DHT22;16845;48.670;9.000;2023-04-03T12:17:51;6.50;99.90
30001;DHT22;16845;48.670;9.000;2023-04-03T12:20:53;6.60;99.90
30001;DHT22;16845;48.670;9.000;2023-04-03T12:23:29;6.60;99.90
30001;DHT22;16845;48.670;9.000;2023-04-03T12:26:18;6.90;99.90
30001;DHT22;16845;48.670;9.000;2023-04-03T12:28:50;7.20;99.90
30001;DHT22;16845;48.670;9.000;2023-04-03T12:31:20;7.70;99.90
30001;DHT22;16845;48.670;9.000;2023-04-03T12:34:02;7.70;99.90
30001;DHT22;16845;48.670;9.000;2023-04-03T12:36:39;7.50;99.90
30001;DHT22;16845;48.670;9.000;2023-04-03T12:39:28;7.40;99.90
30001;DHT22;16845;48.670;9.000;2023-04-03T12:42:08;7.00;99.90
30001;DHT22;16845;48.670;9.000;2023-04-03T12:44:47;6.50;99.90
30001;DHT22;16845;48.670;9.000;2023-04-03T12:47:22;6.30;99.90
30001;DHT22;16845;48.670;9.000;2023-04-03T12:49:52;6.30;99.90
30001;DHT22;16845;48.670;9.000;2023-04-03T12:52:30;6.30;99.90
30001;DHT22;16845;48.670;9.000;2023-04-03T12:55:01;6.40;99.90
30001;DHT22;16845;48.670;9.000;2023-04-03T12:57:30;6.40;99.90
30001;DHT22;16845;48.670;9.000;2023-04-03T12:59:59;6.40;99.90
30001;DHT22;16845;48.670;9.000;2023-04-03T13:02:29;6.40;99.90
30001;DHT22;16845;48.670;9.000;2023-04-03T13:04:59;6.60;99.90
30001;DHT22;16845;48.670;9.000;2023-04-03T13:07:33;6.80;99.90
30001;DHT22;16845;48.670;9.000;2023-04-03T13:10:14;7.20;99.90
30001;DHT22;16845;48.670;9.000;2023-04-03T13:12:49;7.80;99.90
30001;DHT22;16845;48.670;9.000;2023-04-03T13:15:19;8.00;99.90
30001;DHT22;16845;48.670;9.000;2023-04-03T13:17:49;8.40;99.90
30001;DHT22;16845;48.670;9.000;2023-04-03T13:20:23;8.40;99.90
30001;DHT22;16845;48.670;9.000;2023-04-03T13:22:55;8.50;99.90
30001;DHT22;16845;48.670;9.000;2023-04-03T13:25:28;8.30;99.90
30001;DHT22;16845;48.670;9.000;2023-04-03T13:27:58;8.20;99.90
30001;DHT22;16845;48.670;9.000;2023-04-03T13:30:41;8.10;99.90
30001;DHT22;16845;48.670;9.000;2023-04-03T13:33:23;8.30;99.90
30001;DHT22;16845;48.670;9.000;2023-04-03T13:35:56;8.40;99.90
30001;DHT22;16845;48.670;9.000;2023-04-03T13:38:27;8.40;99.90
30001;DHT22;16845;48.670;9.000;2023-04-03T13:41:01;8.50;99.90
30001;DHT22;16845;48.670;9.000;2023-04-03T13:43:32;8.10;99.90
30001;DHT22;16845;48.670;9.000;2023-04-03T13:46:03;8.10;99.90
30001;DHT22;16845;48.670;9.000;2023-04-03T13:48:38;8.20;99.90
30001;DHT22;16845;48.670;9.000;2023-04-03T13:51:17;8.20;99.90
30001;DHT22;16845;48.670;9.000;2023-04-03T13:53:48;8.60;99.90
30001;DHT22;16845;48.670;9.000;2023-04-03T13:56:23;8.50;99.90
30001;DHT22;16845;48.670;9.000;2023-04-03T13:59:04;8.80;99.90
30001;DHT22;16845;48.670;9.000;2023-04-03T14:01:39;8.70;99.90
30001;DHT22;16845;48.670;9.000;2023-04-03T14:04:16;8.50;99.90
30001;DHT22;16845;48.670;9.000;2023-04-03T14:06:45;8.30;99.90
30001;DHT22;16845;48.670;9.000;2023-04-03T14:09:13;8.10;99.90
30001;DHT22;16845;48.670;9.000;2023-04-03T14:11:44;7.60;99.90
30001;DHT22;16845;48.670;9.000;2023-04-03T14:14:15;7.30;99.90
30001;DHT22;16845;48.670;9.000;2023-04-03T14:16:46;7.10;99.90
30001;DHT22;16845;48.670;9.000;2023-04-03T14:19:19;7.00;99.90
30001;DHT22;16845;48.670;9.000;2023-04-03T14:21:48;7.10;99.90
30001;DHT22;16845;48.670;9.000;2023-04-03T14:24:17;7.00;99.90
30001;DHT22;16845;48.670;9.000;2023-04-03T14:26:48;7.10;99.90
30001;DHT22;16845;48.670;9.000;2023-04-03T14:29:16;7.40;99.90
30001;DHT22;16845;48.670;9.000;2023-04-03T14:31:48;7.60;99.90
30001;DHT22;16845;48.670;9.000;2023-04-03T14:34:29;7.60;99.90
30001;DHT22;16845;48.670;9.000;2023-04-03T14:36:57;7.60;99.90
30001;DHT22;16845;48.670;9.000;2023-04-03T14:39:25;7.60;99.90
30001;DHT22;16845;48.670;9.000;2023-04-03T14:41:54;7.70;99.90
30001;DHT22;16845;48.670;9.000;2023-04-03T14:44:22;7.40;99.90
30001;DHT22;16845;48.670;9.000;2023-04-03T14:46:50;7.40;99.90
30001;DHT22;16845;48.670;9.000;2023-04-03T14:49:25;7.20;99.90
30001;DHT22;16845;48.670;9.000;2023-04-03T14:51:55;6.90;99.90
30001;DHT22;16845;48.670;9.000;2023-04-03T14:54:23;6.60;99.90
30001;DHT22;16845;48.670;9.000;2023-04-03T14:56:58;6.50;99.90
30001;DHT22;16845;48.670;9.000;2023-04-03T14:59:27;6.60;99.90
30001;DHT22;16845;48.670;9.000;2023-04-03T15:01:55;6.70;99.90
30001;DHT22;16845;48.670;9.000;2023-04-03T15:04:23;6.90;99.90
30001;DHT22;16845;48.670;9.000;2023-04-03T15:06:52;6.90;99.90
30001;DHT22;16845;48.670;9.000;2023-04-03T15:09:22;7.00;99.90
30001;DHT22;16845;48.670;9.000;2023-04-03T15:11:51;7.00;99.90
30001;DHT22;16845;48.670;9.000;2023-04-03T15:14:21;7.10;99.90
30001;DHT22;16845;48.670;9.000;2023-04-03T15:17:03;7.10;99.90
30001;DHT22;16845;48.670;9.000;2023-04-03T15:19:35;7.20;99.90
30001;DHT22;16845;48.670;9.000;2023-04-03T15:22:04;8.10;99.90
30001;DHT22;16845;48.670;9.000;2023-04-03T15:24:32;9.50;99.90
30001;DHT22;16845;48.670;9.000;2023-04-03T15:27:00;10.30;99.90
30001;DHT22;16845;48.670;9.000;2023-04-03T15:29:30;11.20;97.90
30001;DHT22;16845;48.670;9.000;2023-04-03T15:31:58;11.10;97.40
30001;DHT22;16845;48.670;9.000;2023-04-03T15:34:27;11.00;96.70
30001;DHT22;16845;48.670;9.000;2023-04-03T15:36:55;10.40;97.80
30001;DHT22;16845;48.670;9.000;2023-04-03T15:39:24;9.10;97.80
30001;DHT22;16845;48.670;9.000;2023-04-03T15:41:53;8.20;98.60
30001;DHT22;16845;48.670;9.000;2023-04-03T15:44:21;7.70;99.60
30001;DHT22;16845;48.670;9.000;2023-04-03T15:46:50;7.40;99.40
30001;DHT22;16845;48.670;9.000;2023-04-03T15:49:19;7.20;99.90
30001;DHT22;16845;48.670;9.000;2023-04-03T15:51:47;7.20;99.90
30001;DHT22;16845;48.670;9.000;2023-04-03T15:54:15;7.10;99.90
30001;DHT22;16845;48.670;9.000;2023-04-03T15:56:46;7.10;99.90
30001;DHT22;16845;48.670;9.000;2023-04-03T15:59:16;7.10;99.90
30001;DHT22;16845;48.670;9.000;2023-04-03T16:01:44;7.20;99.90
30001;DHT22;16845;48.670;9.000;2023-04-03T16:04:14;7.20;99.90
30001;DHT22;16845;48.670;9.000;2023-04-03T16:06:44;7.30;99.90
30001;DHT22;16845;48.670;9.000;2023-04-03T16:09:12;7.20;99.90
30001;DHT22;16845;48.670;9.000;2023-04-03T16:11:40;7.00;99.40
30001;DHT22;16845;48.670;9.000;2023-04-03T16:14:08;6.90;99.90
30001;DHT22;16845;48.670;9.000;2023-04-03T16:16:36;6.80;99.90